sensor_id;sensor_type;location;lat;lon;timestamp;temperature;humidity
30288;DHT22;17103;48.316;11.558;2022-08-07T00:01:34;25.50;48.10
30288;DHT22;17103;48.316;11.558;2022-08-07T00:04:00;25.50;48.20
30288;DHT22;17103;48.316;11.558;2022-08-07T00:06:26;25.50;48.20
30288;DHT22;17103;48.316;11.558;2022-08-07T00:08:52;25.50;48.20
30288;DHT22;17103;48.316;11.558;2022-08-07T00:11:18;25.50;48.20
30288;DHT22;17103;48.316;11.558;2022-08-07T00:13:43;25.50;48.20
30288;DHT22;17103;48.316;11.558;2022-08-07T00:16:11;25.50;48.20
30288;DHT22;17103;48.316;11.558;2022-08-07T00:18:37;25.50;48.20
30288;DHT22;17103;48.316;11.558;2022-08-07T00:21:04;25.40;48.10
30288;DHT22;17103;48.316;11.558;2022-08-07T00:23:32;25.40;48.20
30288;DHT22;17103;48.316;11.558;2022-08-07T00:25:59;25.40;48.20
30288;DHT22;17103;48.316;11.558;2022-08-07T00:28:25;25.40;48.10
30288;DHT22;17103;48.316;11.558;2022-08-07T00:30:50;25.40;48.10
30288;DHT22;17103;48.316;11.558;2022-08-07T00:33:16;25.40;48.20
30288;DHT22;17103;48.316;11.558;2022-08-07T00:35:42;25.40;48.10
30288;DHT22;17103;48.316;11.558;2022-08-07T00:38:09;25.40;48.20
30288;DHT22;17103;48.316;11.558;2022-08-07T00:40:36;25.40;48.20
30288;DHT22;17103;48.316;11.558;2022-08-07T00:43:02;25.40;48.20
30288;DHT22;17103;48.316;11.558;2022-08-07T00:45:27;25.40;48.20
30288;DHT22;17103;48.316;11.558;2022-08-07T00:47:53;25.40;48.20
30288;DHT22;17103;48.316;11.558;2022-08-07T00:50:19;25.40;48.20
30288;DHT22;17103;48.316;11.558;2022-08-07T00:52:44;25.40;48.20
30288;DHT22;17103;48.316;11.558;2022-08-07T00:55:11;25.40;48.30
30288;DHT22;17103;48.316;11.558;2022-08-07T00:57:37;25.40;48.20
30288;DHT22;17103;48.316;11.558;2022-08-07T01:00:05;25.30;48.20
30288;DHT22;17103;48.316;11.558;2022-08-07T01:02:32;25.30;48.20
30288;DHT22;17103;48.316;11.558;2022-08-07T01:04:58;25.30;48.20
30288;DHT22;17103;48.316;11.558;2022-08-07T01:07:25;25.30;48.20
30288;DHT22;17103;48.316;11.558;2022-08-07T01:09:51;25.30;48.20
30288;DHT22;17103;48.316;11.558;2022-08-07T01:12:16;25.30;48.20
30288;DHT22;17103;48.316;11.558;2022-08-07T01:14:42;25.30;48.20
30288;DHT22;17103;48.316;11.558;2022-08-07T01:17:09;25.30;48.10
30288;DHT22;17103;48.316;11.558;2022-08-07T01:19:36;25.30;48.10
30288;DHT22;17103;48.316;11.558;2022-08-07T01:22:02;25.20;48.20
30288;DHT22;17103;48.316;11.558;2022-08-07T01:24:29;25.20;48.10
30288;DHT22;17103;48.316;11.558;2022-08-07T01:26:55;25.20;48.10
30288;DHT22;17103;48.316;11.558;2022-08-07T01:29:24;25.20;48.10
30288;DHT22;17103;48.316;11.558;2022-08-07T01:31:51;25.20;48.10
30288;DHT22;17103;48.316;11.558;2022-08-07T01:34:18;25.20;48.10
30288;DHT22;17103;48.316;11.558;2022-08-07T01:36:44;25.20;48.10
30288;DHT22;17103;48.316;11.558;2022-08-07T01:39:10;25.20;48.00
30288;DHT22;17103;48.316;11.558;2022-08-07T01:41:37;25.20;48.10
30288;DHT22;17103;48.316;11.558;2022-08-07T01:44:04;25.20;48.10
30288;DHT22;17103;48.316;11.558;2022-08-07T01:46:30;25.20;48.00
30288;DHT22;17103;48.316;11.558;2022-08-07T01:48:57;25.20;48.10
30288;DHT22;17103;48.316;11.558;2022-08-07T01:51:24;25.20;48.00
30288;DHT22;17103;48.316;11.558;2022-08-07T01:53:54;25.20;48.00
30288;DHT22;17103;48.316;11.558;2022-08-07T01:56:35;25.30;48.10
30288;DHT22;17103;48.316;11.558;2022-08-07T01:59:15;25.20;47.90
30288;DHT22;17103;48.316;11.558;2022-08-07T02:01:49;25.20;48.00
30288;DHT22;17103;48.316;11.558;2022-08-07T02:04:27;25.10;48.40
30288;DHT22;17103;48.316;11.558;2022-08-07T02:06:56;25.10;47.90
30288;DHT22;17103;48.316;11.558;2022-08-07T02:09:24;25.10;47.80
30288;DHT22;17103;48.316;11.558;2022-08-07T02:11:53;25.10;47.70
30288;DHT22;17103;48.316;11.558;2022-08-07T02:14:21;25.10;47.70
30288;DHT22;17103;48.316;11.558;2022-08-07T02:16:49;25.00;47.60
30288;DHT22;17103;48.316;11.558;2022-08-07T02:19:16;25.00;47.60
30288;DHT22;17103;48.316;11.558;2022-08-07T02:21:42;25.00;47.60
30288;DHT22;17103;48.316;11.558;2022-08-07T02:24:09;25.00;47.60
30288;DHT22;17103;48.316;11.558;2022-08-07T02:26:36;25.00;47.60
30288;DHT22;17103;48.316;11.558;2022-08-07T02:29:05;24.90;47.50
30288;DHT22;17103;48.316;11.558;2022-08-07T02:31:32;24.90;47.50
30288;DHT22;17103;48.316;11.558;2022-08-07T02:34:01;24.90;47.50
30288;DHT22;17103;48.316;11.558;2022-08-07T02:36:29;25.00;47.50
30288;DHT22;17103;48.316;11.558;2022-08-07T02:39:00;24.80;47.30
30288;DHT22;17103;48.316;11.558;2022-08-07T02:41:28;24.80;47.80
30288;DHT22;17103;48.316;11.558;2022-08-07T02:43:55;24.80;47.30
30288;DHT22;17103;48.316;11.558;2022-08-07T02:46:24;24.90;47.30
30288;DHT22;17103;48.316;11.558;2022-08-07T02:48:50;24.80;47.20
30288;DHT22;17103;48.316;11.558;2022-08-07T02:51:18;24.70;47.20
30288;DHT22;17103;48.316;11.558;2022-08-07T02:53:45;24.70;47.10
30288;DHT22;17103;48.316;11.558;2022-08-07T02:56:20;24.70;47.10
30288;DHT22;17103;48.316;11.558;2022-08-07T02:59:46;24.70;47.60
30288;DHT22;17103;48.316;11.558;2022-08-07T03:02:16;24.60;47.00
30288;DHT22;17103;48.316;11.558;2022-08-07T03:04:54;24.60;47.00
30288;DHT22;17103;48.316;11.558;2022-08-07T03:07:20;24.60;47.00
30288;DHT22;17103;48.316;11.558;2022-08-07T03:09:59;24.60;47.00
30288;DHT22;17103;48.316;11.558;2022-08-07T03:12:27;24.50;46.90
30288;DHT22;17103;48.316;11.558;2022-08-07T03:14:53;24.50;46.90
30288;DHT22;17103;48.316;11.558;2022-08-07T03:17:21;24.50;46.90
30288;DHT22;17103;48.316;11.558;2022-08-07T03:19:48;24.50;46.90
30288;DHT22;17103;48.316;11.558;2022-08-07T03:22:15;24.50;47.00
30288;DHT22;17103;48.316;11.558;2022-08-07T03:24:42;24.50;47.00
30288;DHT22;17103;48.316;11.558;2022-08-07T03:27:09;24.50;47.10
30288;DHT22;17103;48.316;11.558;2022-08-07T03:29:55;24.80;47.40
30288;DHT22;17103;48.316;11.558;2022-08-07T03:32:26;24.40;47.00
30288;DHT22;17103;48.316;11.558;2022-08-07T03:34:59;24.60;47.30
30288;DHT22;17103;48.316;11.558;2022-08-07T03:37:27;24.30;47.00
30288;DHT22;17103;48.316;11.558;2022-08-07T03:39:54;24.30;46.90
30288;DHT22;17103;48.316;11.558;2022-08-07T03:42:27;24.40;47.00
30288;DHT22;17103;48.316;11.558;2022-08-07T03:44:54;24.20;46.70
30288;DHT22;17103;48.316;11.558;2022-08-07T03:47:20;24.30;46.80
30288;DHT22;17103;48.316;11.558;2022-08-07T03:49:46;24.50;47.00
30288;DHT22;17103;48.316;11.558;2022-08-07T03:52:16;24.50;47.00
30288;DHT22;17103;48.316;11.558;2022-08-07T03:54:42;24.50;47.00
30288;DHT22;17103;48.316;11.558;2022-08-07T03:57:13;24.40;46.90
30288;DHT22;17103;48.316;11.558;2022-08-07T03:59:40;24.20;46.30
30288;DHT22;17103;48.316;11.558;2022-08-07T04:02:07;24.60;46.80
30288;DHT22;17103;48.316;11.558;2022-08-07T04:04:45;24.10;46.40
30288;DHT22;17103;48.316;11.558;2022-08-07T04:07:18;24.70;46.70
30288;DHT22;17103;48.316;11.558;2022-08-07T04:09:49;24.30;46.40
30288;DHT22;17103;48.316;11.558;2022-08-07T04:12:16;24.10;46.20
30288;DHT22;17103;48.316;11.558;2022-08-07T04:14:43;24.30;46.30
30288;DHT22;17103;48.316;11.558;2022-08-07T04:17:11;24.00;46.10
30288;DHT22;17103;48.316;11.558;2022-08-07T04:19:41;24.70;46.60
30288;DHT22;17103;48.316;11.558;2022-08-07T04:22:09;24.00;45.70
30288;DHT22;17103;48.316;11.558;2022-08-07T04:24:36;24.00;46.10
30288;DHT22;17103;48.316;11.558;2022-08-07T04:27:03;24.00;45.80
30288;DHT22;17103;48.316;11.558;2022-08-07T04:29:29;23.90;45.80
30288;DHT22;17103;48.316;11.558;2022-08-07T04:31:56;24.20;46.10
30288;DHT22;17103;48.316;11.558;2022-08-07T04:34:24;24.00;45.90
30288;DHT22;17103;48.316;11.558;2022-08-07T04:36:54;23.90;45.60
30288;DHT22;17103;48.316;11.558;2022-08-07T04:39:27;24.20;45.90
30288;DHT22;17103;48.316;11.558;2022-08-07T04:41:53;23.90;45.60
30288;DHT22;17103;48.316;11.558;2022-08-07T04:44:21;23.90;45.70
30288;DHT22;17103;48.316;11.558;2022-08-07T04:46:54;23.90;45.60
30288;DHT22;17103;48.316;11.558;2022-08-07T04:49:29;23.90;45.50
30288;DHT22;17103;48.316;11.558;2022-08-07T04:52:24;23.90;45.50
30288;DHT22;17103;48.316;11.558;2022-08-07T04:55:00;23.80;45.30
30288;DHT22;17103;48.316;11.558;2022-08-07T05:00:10;23.90;45.60
30288;DHT22;17103;48.316;11.558;2022-08-07T05:02:57;23.90;45.60
30288;DHT22;17103;48.316;11.558;2022-08-07T05:05:44;23.90;45.60
30288;DHT22;17103;48.316;11.558;2022-08-07T05:08:21;23.90;46.30
30288;DHT22;17103;48.316;11.558;2022-08-07T05:10:56;23.90;45.80
30288;DHT22;17103;48.316;11.558;2022-08-07T05:13:32;23.90;45.60
30288;DHT22;17103;48.316;11.558;2022-08-07T05:16:06;23.90;45.90
30288;DHT22;17103;48.316;11.558;2022-08-07T05:18:47;24.00;45.70
30288;DHT22;17103;48.316;11.558;2022-08-07T05:21:28;24.00;45.30
30288;DHT22;17103;48.316;11.558;2022-08-07T05:24:02;24.10;45.30
30288;DHT22;17103;48.316;11.558;2022-08-07T05:26:32;24.00;45.30
30288;DHT22;17103;48.316;11.558;2022-08-07T05:29:02;24.00;45.10
30288;DHT22;17103;48.316;11.558;2022-08-07T05:31:31;24.30;45.50
30288;DHT22;17103;48.316;11.558;2022-08-07T05:34:15;24.00;45.30
30288;DHT22;17103;48.316;11.558;2022-08-07T05:36:52;24.30;45.60
30288;DHT22;17103;48.316;11.558;2022-08-07T05:39:21;23.90;44.60
30288;DHT22;17103;48.316;11.558;2022-08-07T05:41:48;24.10;44.40
30288;DHT22;17103;48.316;11.558;2022-08-07T05:44:23;24.10;44.10
30288;DHT22;17103;48.316;11.558;2022-08-07T05:46:57;24.10;43.60
30288;DHT22;17103;48.316;11.558;2022-08-07T05:49:27;24.00;43.60
30288;DHT22;17103;48.316;11.558;2022-08-07T05:51:53;24.00;44.00
30288;DHT22;17103;48.316;11.558;2022-08-07T05:54:19;24.00;43.80
30288;DHT22;17103;48.316;11.558;2022-08-07T05:56:45;23.90;43.50
30288;DHT22;17103;48.316;11.558;2022-08-07T05:59:17;23.90;43.60
30288;DHT22;17103;48.316;11.558;2022-08-07T06:01:44;23.80;43.40
30288;DHT22;17103;48.316;11.558;2022-08-07T06:04:10;24.10;43.70
30288;DHT22;17103;48.316;11.558;2022-08-07T06:06:48;24.00;43.40
30288;DHT22;17103;48.316;11.558;2022-08-07T06:09:15;23.70;42.50
30288;DHT22;17103;48.316;11.558;2022-08-07T06:11:42;23.70;43.00
30288;DHT22;17103;48.316;11.558;2022-08-07T06:14:13;23.60;43.10
30288;DHT22;17103;48.316;11.558;2022-08-07T06:16:46;23.60;43.10
30288;DHT22;17103;48.316;11.558;2022-08-07T06:19:13;23.60;43.00
30288;DHT22;17103;48.316;11.558;2022-08-07T06:21:43;23.50;43.20
30288;DHT22;17103;48.316;11.558;2022-08-07T06:24:09;23.50;43.20
30288;DHT22;17103;48.316;11.558;2022-08-07T06:26:41;23.50;43.20
30288;DHT22;17103;48.316;11.558;2022-08-07T06:29:07;23.40;42.80
30288;DHT22;17103;48.316;11.558;2022-08-07T06:31:34;23.50;42.90
30288;DHT22;17103;48.316;11.558;2022-08-07T06:33:59;23.50;43.00
30288;DHT22;17103;48.316;11.558;2022-08-07T06:36:25;23.50;42.90
30288;DHT22;17103;48.316;11.558;2022-08-07T06:38:53;23.80;43.10
30288;DHT22;17103;48.316;11.558;2022-08-07T06:41:27;23.50;42.90
30288;DHT22;17103;48.316;11.558;2022-08-07T06:43:55;23.50;42.80
30288;DHT22;17103;48.316;11.558;2022-08-07T06:46:21;23.50;42.90
30288;DHT22;17103;48.316;11.558;2022-08-07T06:48:47;23.50;42.90
30288;DHT22;17103;48.316;11.558;2022-08-07T06:51:16;23.40;42.90
30288;DHT22;17103;48.316;11.558;2022-08-07T06:53:42;23.40;42.90
30288;DHT22;17103;48.316;11.558;2022-08-07T06:56:13;23.40;43.00
30288;DHT22;17103;48.316;11.558;2022-08-07T06:58:40;23.50;43.10
30288;DHT22;17103;48.316;11.558;2022-08-07T07:01:11;23.50;43.20
30288;DHT22;17103;48.316;11.558;2022-08-07T07:03:41;23.50;43.20
30288;DHT22;17103;48.316;11.558;2022-08-07T07:06:07;23.50;43.20
30288;DHT22;17103;48.316;11.558;2022-08-07T07:08:34;23.50;43.20
30288;DHT22;17103;48.316;11.558;2022-08-07T07:11:05;23.50;43.10
30288;DHT22;17103;48.316;11.558;2022-08-07T07:13:39;23.50;43.10
30288;DHT22;17103;48.316;11.558;2022-08-07T07:16:14;23.40;43.00
30288;DHT22;17103;48.316;11.558;2022-08-07T07:18:51;23.70;43.20
30288;DHT22;17103;48.316;11.558;2022-08-07T07:21:32;23.60;43.30
30288;DHT22;17103;48.316;11.558;2022-08-07T07:24:00;23.60;43.40
30288;DHT22;17103;48.316;11.558;2022-08-07T07:26:26;23.60;43.40
30288;DHT22;17103;48.316;11.558;2022-08-07T07:28:57;23.60;43.40
30288;DHT22;17103;48.316;11.558;2022-08-07T07:31:32;23.70;43.60
30288;DHT22;17103;48.316;11.558;2022-08-07T07:34:05;23.80;43.60
30288;DHT22;17103;48.316;11.558;2022-08-07T07:36:32;23.80;43.70
30288;DHT22;17103;48.316;11.558;2022-08-07T07:39:03;23.80;43.80
30288;DHT22;17103;48.316;11.558;2022-08-07T07:41:32;23.90;43.80
30288;DHT22;17103;48.316;11.558;2022-08-07T07:43:59;23.90;43.70
30288;DHT22;17103;48.316;11.558;2022-08-07T07:46:32;23.90;43.80
30288;DHT22;17103;48.316;11.558;2022-08-07T07:49:07;24.00;43.70
30288;DHT22;17103;48.316;11.558;2022-08-07T07:51:35;24.10;44.10
30288;DHT22;17103;48.316;11.558;2022-08-07T07:54:06;24.20;43.80
30288;DHT22;17103;48.316;11.558;2022-08-07T07:56:37;24.20;43.70
30288;DHT22;17103;48.316;11.558;2022-08-07T07:59:04;24.30;43.50
30288;DHT22;17103;48.316;11.558;2022-08-07T08:01:39;24.30;43.50
30288;DHT22;17103;48.316;11.558;2022-08-07T08:04:11;24.40;43.50
30288;DHT22;17103;48.316;11.558;2022-08-07T08:06:39;24.80;43.60
30288;DHT22;17103;48.316;11.558;2022-08-07T08:09:07;24.50;43.00
30288;DHT22;17103;48.316;11.558;2022-08-07T08:11:38;24.50;42.80
30288;DHT22;17103;48.316;11.558;2022-08-07T08:14:07;24.50;42.50
30288;DHT22;17103;48.316;11.558;2022-08-07T08:16:42;24.70;42.90
30288;DHT22;17103;48.316;11.558;2022-08-07T08:19:11;24.60;42.80
30288;DHT22;17103;48.316;11.558;2022-08-07T08:21:39;24.60;42.70
30288;DHT22;17103;48.316;11.558;2022-08-07T08:24:27;25.00;42.80
30288;DHT22;17103;48.316;11.558;2022-08-07T08:27:15;24.60;42.40
30288;DHT22;17103;48.316;11.558;2022-08-07T08:29:49;24.70;42.30
30288;DHT22;17103;48.316;11.558;2022-08-07T08:32:17;24.70;42.00
30288;DHT22;17103;48.316;11.558;2022-08-07T08:34:46;24.70;42.00
30288;DHT22;17103;48.316;11.558;2022-08-07T08:37:14;24.80;41.90
30288;DHT22;17103;48.316;11.558;2022-08-07T08:39:42;24.80;41.80
30288;DHT22;17103;48.316;11.558;2022-08-07T08:50:55;25.10;41.50
30288;DHT22;17103;48.316;11.558;2022-08-07T08:53:43;25.10;41.40
30288;DHT22;17103;48.316;11.558;2022-08-07T08:56:13;25.20;41.30
30288;DHT22;17103;48.316;11.558;2022-08-07T08:58:59;25.30;41.40
30288;DHT22;17103;48.316;11.558;2022-08-07T09:07:42;25.50;41.40
30288;DHT22;17103;48.316;11.558;2022-08-07T09:10:36;25.60;41.00
30288;DHT22;17103;48.316;11.558;2022-08-07T09:19:06;25.70;40.80
30288;DHT22;17103;48.316;11.558;2022-08-07T09:21:51;25.80;40.70
30288;DHT22;17103;48.316;11.558;2022-08-07T09:27:27;25.90;40.60
30288;DHT22;17103;48.316;11.558;2022-08-07T09:30:09;26.00;40.50
30288;DHT22;17103;48.316;11.558;2022-08-07T09:35:32;26.20;40.40
30288;DHT22;17103;48.316;11.558;2022-08-07T09:38:15;26.30;40.30
30288;DHT22;17103;48.316;11.558;2022-08-07T09:40:59;26.40;40.30
30288;DHT22;17103;48.316;11.558;2022-08-07T09:43:35;26.40;39.60
30288;DHT22;17103;48.316;11.558;2022-08-07T09:46:41;26.50;39.90
30288;DHT22;17103;48.316;11.558;2022-08-07T09:52:27;26.70;39.30
30288;DHT22;17103;48.316;11.558;2022-08-07T09:55:09;26.70;39.40
30288;DHT22;17103;48.316;11.558;2022-08-07T10:00:49;26.90;39.20
30288;DHT22;17103;48.316;11.558;2022-08-07T10:06:43;27.10;39.50
30288;DHT22;17103;48.316;11.558;2022-08-07T10:12:08;27.20;39.20
30288;DHT22;17103;48.316;11.558;2022-08-07T10:17:54;27.30;38.60
30288;DHT22;17103;48.316;11.558;2022-08-07T10:23:41;27.50;38.30
30288;DHT22;17103;48.316;11.558;2022-08-07T10:26:09;27.50;38.50
30288;DHT22;17103;48.316;11.558;2022-08-07T10:37:06;27.80;38.10
30288;DHT22;17103;48.316;11.558;2022-08-07T10:40:00;27.80;37.80
30288;DHT22;17103;48.316;11.558;2022-08-07T10:42:30;27.90;37.90
30288;DHT22;17103;48.316;11.558;2022-08-07T10:45:14;28.00;39.00
30288;DHT22;17103;48.316;11.558;2022-08-07T10:50:48;28.10;37.00
30288;DHT22;17103;48.316;11.558;2022-08-07T10:53:40;28.20;37.00
30288;DHT22;17103;48.316;11.558;2022-08-07T10:56:24;28.20;37.00
30288;DHT22;17103;48.316;11.558;2022-08-07T11:10:22;28.50;35.80
30288;DHT22;17103;48.316;11.558;2022-08-07T11:13:15;28.50;35.40
30288;DHT22;17103;48.316;11.558;2022-08-07T11:15:48;28.60;35.80
30288;DHT22;17103;48.316;11.558;2022-08-07T11:18:36;28.80;35.40
30288;DHT22;17103;48.316;11.558;2022-08-07T11:21:16;28.60;35.40
30288;DHT22;17103;48.316;11.558;2022-08-07T11:23:56;28.70;35.40
30288;DHT22;17103;48.316;11.558;2022-08-07T11:29:37;28.80;35.40
30288;DHT22;17103;48.316;11.558;2022-08-07T11:32:10;28.90;35.40
30288;DHT22;17103;48.316;11.558;2022-08-07T11:34:51;28.90;35.60
30288;DHT22;17103;48.316;11.558;2022-08-07T11:37:44;29.00;35.40
30288;DHT22;17103;48.316;11.558;2022-08-07T11:40:22;29.10;35.10
30288;DHT22;17103;48.316;11.558;2022-08-07T11:43:05;29.10;34.90
30288;DHT22;17103;48.316;11.558;2022-08-07T11:54:32;29.40;34.20
30288;DHT22;17103;48.316;11.558;2022-08-07T11:57:14;29.50;34.40
30288;DHT22;17103;48.316;11.558;2022-08-07T12:14:43;29.70;33.70
30288;DHT22;17103;48.316;11.558;2022-08-07T12:17:19;29.80;33.80
30288;DHT22;17103;48.316;11.558;2022-08-07T12:20:02;29.80;33.80
30288;DHT22;17103;48.316;11.558;2022-08-07T12:25:53;30.00;33.30
30288;DHT22;17103;48.316;11.558;2022-08-07T12:28:40;30.00;33.70
30288;DHT22;17103;48.316;11.558;2022-08-07T12:31:23;30.10;33.00
30288;DHT22;17103;48.316;11.558;2022-08-07T12:33:52;30.10;33.10
30288;DHT22;17103;48.316;11.558;2022-08-07T12:36:25;30.10;33.50
30288;DHT22;17103;48.316;11.558;2022-08-07T12:39:04;30.20;33.40
30288;DHT22;17103;48.316;11.558;2022-08-07T12:41:36;30.50;33.70
30288;DHT22;17103;48.316;11.558;2022-08-07T12:44:08;30.40;33.20
30288;DHT22;17103;48.316;11.558;2022-08-07T12:49:16;30.50;34.40
30288;DHT22;17103;48.316;11.558;2022-08-07T12:52:03;30.60;34.00
30288;DHT22;17103;48.316;11.558;2022-08-07T12:55:05;30.60;33.40
30288;DHT22;17103;48.316;11.558;2022-08-07T12:57:36;30.60;33.40
30288;DHT22;17103;48.316;11.558;2022-08-07T13:00:04;30.70;33.10
30288;DHT22;17103;48.316;11.558;2022-08-07T13:02:58;30.80;33.80
30288;DHT22;17103;48.316;11.558;2022-08-07T13:05:44;30.90;32.10
30288;DHT22;17103;48.316;11.558;2022-08-07T13:11:14;31.00;32.60
30288;DHT22;17103;48.316;11.558;2022-08-07T13:16:28;31.20;32.40
30288;DHT22;17103;48.316;11.558;2022-08-07T13:19:20;31.30;33.00
30288;DHT22;17103;48.316;11.558;2022-08-07T13:21:55;31.40;32.20
30288;DHT22;17103;48.316;11.558;2022-08-07T13:24:44;31.50;31.70
30288;DHT22;17103;48.316;11.558;2022-08-07T13:27:37;31.60;32.00
30288;DHT22;17103;48.316;11.558;2022-08-07T13:30:09;31.90;32.60
30288;DHT22;17103;48.316;11.558;2022-08-07T13:33:03;31.70;32.20
30288;DHT22;17103;48.316;11.558;2022-08-07T13:35:38;31.80;32.00
30288;DHT22;17103;48.316;11.558;2022-08-07T13:40:53;32.00;31.60
30288;DHT22;17103;48.316;11.558;2022-08-07T13:43:22;32.00;31.60
30288;DHT22;17103;48.316;11.558;2022-08-07T13:45:53;32.30;32.30
30288;DHT22;17103;48.316;11.558;2022-08-07T13:48:20;32.10;31.80
30288;DHT22;17103;48.316;11.558;2022-08-07T13:50:49;32.20;31.90
30288;DHT22;17103;48.316;11.558;2022-08-07T13:53:28;32.40;31.60
30288;DHT22;17103;48.316;11.558;2022-08-07T13:55:55;32.30;31.00
30288;DHT22;17103;48.316;11.558;2022-08-07T13:58:24;32.40;31.40
30288;DHT22;17103;48.316;11.558;2022-08-07T14:01:12;32.10;31.40
30288;DHT22;17103;48.316;11.558;2022-08-07T14:03:40;32.60;31.50
30288;DHT22;17103;48.316;11.558;2022-08-07T14:06:09;32.50;31.10
30288;DHT22;17103;48.316;11.558;2022-08-07T14:08:41;32.50;31.00
30288;DHT22;17103;48.316;11.558;2022-08-07T14:11:12;32.70;31.70
30288;DHT22;17103;48.316;11.558;2022-08-07T14:13:42;32.70;31.40
30288;DHT22;17103;48.316;11.558;2022-08-07T14:16:15;32.70;29.60
30288;DHT22;17103;48.316;11.558;2022-08-07T14:18:46;32.70;30.20
30288;DHT22;17103;48.316;11.558;2022-08-07T14:21:14;32.90;30.70
30288;DHT22;17103;48.316;11.558;2022-08-07T14:24:05;32.90;30.80
30288;DHT22;17103;48.316;11.558;2022-08-07T14:26:51;32.90;30.00
30288;DHT22;17103;48.316;11.558;2022-08-07T14:29:34;32.80;29.90
30288;DHT22;17103;48.316;11.558;2022-08-07T14:32:03;32.80;30.20
30288;DHT22;17103;48.316;11.558;2022-08-07T14:34:36;32.80;30.80
30288;DHT22;17103;48.316;11.558;2022-08-07T14:37:07;32.90;30.70
30288;DHT22;17103;48.316;11.558;2022-08-07T14:39:39;32.90;30.30
30288;DHT22;17103;48.316;11.558;2022-08-07T14:42:22;32.90;30.10
30288;DHT22;17103;48.316;11.558;2022-08-07T14:44:56;32.90;30.30
30288;DHT22;17103;48.316;11.558;2022-08-07T14:47:23;33.00;30.40
30288;DHT22;17103;48.316;11.558;2022-08-07T14:49:52;33.00;30.30
30288;DHT22;17103;48.316;11.558;2022-08-07T14:52:18;33.00;30.20
30288;DHT22;17103;48.316;11.558;2022-08-07T14:54:51;33.00;30.30
30288;DHT22;17103;48.316;11.558;2022-08-07T14:57:17;33.00;29.90
30288;DHT22;17103;48.316;11.558;2022-08-07T14:59:58;33.10;30.20
30288;DHT22;17103;48.316;11.558;2022-08-07T15:02:27;33.10;30.40
30288;DHT22;17103;48.316;11.558;2022-08-07T15:04:55;33.00;29.80
30288;DHT22;17103;48.316;11.558;2022-08-07T15:07:22;33.10;29.60
30288;DHT22;17103;48.316;11.558;2022-08-07T15:09:52;33.10;29.70
30288;DHT22;17103;48.316;11.558;2022-08-07T15:12:22;33.10;30.00
30288;DHT22;17103;48.316;11.558;2022-08-07T15:15:08;33.30;29.80
30288;DHT22;17103;48.316;11.558;2022-08-07T15:17:40;33.10;29.40
30288;DHT22;17103;48.316;11.558;2022-08-07T15:20:10;33.10;29.80
30288;DHT22;17103;48.316;11.558;2022-08-07T15:22:47;33.10;29.50
30288;DHT22;17103;48.316;11.558;2022-08-07T15:25:22;33.10;29.30
30288;DHT22;17103;48.316;11.558;2022-08-07T15:27:56;33.10;29.60
30288;DHT22;17103;48.316;11.558;2022-08-07T15:30:24;33.10;29.80
30288;DHT22;17103;48.316;11.558;2022-08-07T15:32:51;33.00;29.70
30288;DHT22;17103;48.316;11.558;2022-08-07T15:35:29;33.00;29.80
30288;DHT22;17103;48.316;11.558;2022-08-07T15:38:08;33.00;29.70
30288;DHT22;17103;48.316;11.558;2022-08-07T15:40:45;33.10;29.40
30288;DHT22;17103;48.316;11.558;2022-08-07T15:43:18;32.90;29.30
30288;DHT22;17103;48.316;11.558;2022-08-07T15:45:48;32.90;29.20
30288;DHT22;17103;48.316;11.558;2022-08-07T15:48:21;32.70;29.20
30288;DHT22;17103;48.316;11.558;2022-08-07T15:50:50;32.80;29.40
30288;DHT22;17103;48.316;11.558;2022-08-07T15:53:51;32.70;29.30
30288;DHT22;17103;48.316;11.558;2022-08-07T15:56:21;32.70;29.60
30288;DHT22;17103;48.316;11.558;2022-08-07T15:58:52;32.70;29.70
30288;DHT22;17103;48.316;11.558;2022-08-07T16:01:39;32.60;29.30
30288;DHT22;17103;48.316;11.558;2022-08-07T16:04:11;32.50;29.40
30288;DHT22;17103;48.316;11.558;2022-08-07T16:06:48;32.50;29.50
30288;DHT22;17103;48.316;11.558;2022-08-07T16:20:47;32.20;29.30
30288;DHT22;17103;48.316;11.558;2022-08-07T16:23:28;32.20;29.30
30288;DHT22;17103;48.316;11.558;2022-08-07T16:29:28;32.00;29.30
30288;DHT22;17103;48.316;11.558;2022-08-07T16:32:07;32.00;29.30
30288;DHT22;17103;48.316;11.558;2022-08-07T16:34:47;31.90;29.50
30288;DHT22;17103;48.316;11.558;2022-08-07T16:40:36;31.80;29.60
30288;DHT22;17103;48.316;11.558;2022-08-07T17:00:16;31.40;29.50
30288;DHT22;17103;48.316;11.558;2022-08-07T17:03:00;31.30;29.50
30288;DHT22;17103;48.316;11.558;2022-08-07T17:06:15;31.20;29.60
30288;DHT22;17103;48.316;11.558;2022-08-07T17:09:02;31.10;29.60
30288;DHT22;17103;48.316;11.558;2022-08-07T17:11:54;31.00;29.50
30288;DHT22;17103;48.316;11.558;2022-08-07T17:15:11;30.90;29.60
30288;DHT22;17103;48.316;11.558;2022-08-07T17:17:41;30.80;29.70
30288;DHT22;17103;48.316;11.558;2022-08-07T17:22:59;30.70;29.80
30288;DHT22;17103;48.316;11.558;2022-08-07T17:25:43;30.60;29.80
30288;DHT22;17103;48.316;11.558;2022-08-07T17:28:18;30.50;29.90
30288;DHT22;17103;48.316;11.558;2022-08-07T17:34:11;30.30;30.00
30288;DHT22;17103;48.316;11.558;2022-08-07T17:36:41;30.30;30.00
30288;DHT22;17103;48.316;11.558;2022-08-07T17:39:18;30.20;30.00
30288;DHT22;17103;48.316;11.558;2022-08-07T17:42:13;30.10;30.10
30288;DHT22;17103;48.316;11.558;2022-08-07T17:44:54;30.00;30.00
30288;DHT22;17103;48.316;11.558;2022-08-07T17:50:20;29.90;30.50
30288;DHT22;17103;48.316;11.558;2022-08-07T17:53:07;29.90;30.70
30288;DHT22;17103;48.316;11.558;2022-08-07T17:55:45;29.70;30.60
30288;DHT22;17103;48.316;11.558;2022-08-07T17:58:16;29.70;30.90
30288;DHT22;17103;48.316;11.558;2022-08-07T18:00:48;29.60;31.20
30288;DHT22;17103;48.316;11.558;2022-08-07T18:03:24;29.60;31.40
30288;DHT22;17103;48.316;11.558;2022-08-07T18:06:12;29.70;31.60
30288;DHT22;17103;48.316;11.558;2022-08-07T18:11:23;29.60;31.40
30288;DHT22;17103;48.316;11.558;2022-08-07T18:14:26;29.60;31.60
30288;DHT22;17103;48.316;11.558;2022-08-07T18:17:51;29.50;31.60
30288;DHT22;17103;48.316;11.558;2022-08-07T18:20:13;29.50;31.60
30288;DHT22;17103;48.316;11.558;2022-08-07T18:22:49;29.50;31.50
30288;DHT22;17103;48.316;11.558;2022-08-07T18:25:25;29.50;31.50
30288;DHT22;17103;48.316;11.558;2022-08-07T18:28:17;29.70;31.60
30288;DHT22;17103;48.316;11.558;2022-08-07T18:50:10;29.00;31.70
30288;DHT22;17103;48.316;11.558;2022-08-07T18:55:23;29.00;32.10